sensor_id;sensor_type;location;lat;lon;timestamp;pressure;altitude;pressure_sealevel;temperature;humidity
43312;BME280;30041;48.300;16.352;2022-07-23T00:00:16;99661.38;;;27.48;47.55
43312;BME280;30041;48.300;16.352;2022-07-23T00:02:41;99655.91;;;27.48;47.59
43312;BME280;30041;48.300;16.352;2022-07-23T00:05:08;99658.66;;;27.48;47.43
43312;BME280;30041;48.300;16.352;2022-07-23T00:07:34;99658.66;;;27.48;47.66
43312;BME280;30041;48.300;16.352;2022-07-23T00:10:00;99660.03;;;27.46;47.58
43312;BME280;30041;48.300;16.352;2022-07-23T00:12:26;99663.03;;;27.44;47.39
43312;BME280;30041;48.300;16.352;2022-07-23T00:14:51;99664.09;;;27.48;47.57
43312;BME280;30041;48.300;16.352;2022-07-23T00:17:17;99660.28;;;27.49;47.34
43312;BME280;30041;48.300;16.352;2022-07-23T00:19:43;99658.66;;;27.48;47.72
43312;BME280;30041;48.300;16.352;2022-07-23T00:22:08;99658.66;;;27.48;47.47
43312;BME280;30041;48.300;16.352;2022-07-23T00:24:34;99662.19;;;27.49;47.29
43312;BME280;30041;48.300;16.352;2022-07-23T00:27:00;99664.94;;;27.49;47.33
43312;BME280;30041;48.300;16.352;2022-07-23T00:29:25;99658.38;;;27.50;47.62
43312;BME280;30041;48.300;16.352;2022-07-23T00:31:51;99660.28;;;27.49;47.39
43312;BME280;30041;48.300;16.352;2022-07-23T00:34:16;99658.38;;;27.50;47.42
43312;BME280;30041;48.300;16.352;2022-07-23T00:36:42;99658.38;;;27.50;47.16
43312;BME280;30041;48.300;16.352;2022-07-23T00:39:08;99660.03;;;27.51;47.39
43312;BME280;30041;48.300;16.352;2022-07-23T00:41:33;99667.09;;;27.47;47.66
43312;BME280;30041;48.300;16.352;2022-07-23T00:44:23;99667.09;;;27.47;47.61
43312;BME280;30041;48.300;16.352;2022-07-23T00:46:51;99663.03;;;27.44;47.70
43312;BME280;30041;48.300;16.352;2022-07-23T00:49:17;99658.66;;;27.48;47.53
43312;BME280;30041;48.300;16.352;2022-07-23T00:51:43;99665.19;;;27.47;47.64
43312;BME280;30041;48.300;16.352;2022-07-23T00:54:09;99665.19;;;27.47;47.17
43312;BME280;30041;48.300;16.352;2022-07-23T00:56:36;99667.34;;;27.50;47.47
43312;BME280;30041;48.300;16.352;2022-07-23T00:59:02;99668.47;;;27.49;47.22
43312;BME280;30041;48.300;16.352;2022-07-23T01:01:28;99668.72;;;27.48;47.28
43312;BME280;30041;48.300;16.352;2022-07-23T01:03:53;99675.53;;;27.45;47.20
43312;BME280;30041;48.300;16.352;2022-07-23T01:06:19;99669.81;;;27.47;47.31
43312;BME280;30041;48.300;16.352;2022-07-23T01:08:45;99666.31;;;27.46;47.06
43312;BME280;30041;48.300;16.352;2022-07-23T01:11:11;99654.03;;;27.49;47.44
43312;BME280;30041;48.300;16.352;2022-07-23T01:13:42;99654.56;;;27.46;47.22
43312;BME280;30041;48.300;16.352;2022-07-23T01:16:08;99651.03;;;27.45;47.36
43312;BME280;30041;48.300;16.352;2022-07-23T01:18:33;99657.28;;;27.46;47.49
43312;BME280;30041;48.300;16.352;2022-07-23T01:20:59;99657.56;;;27.49;47.27
43312;BME280;30041;48.300;16.352;2022-07-23T01:23:25;99656.22;;;27.47;47.08
43312;BME280;30041;48.300;16.352;2022-07-23T01:25:54;99664.66;;;27.45;47.11
43312;BME280;30041;48.300;16.352;2022-07-23T01:28:20;99676.06;;;27.47;47.11
43312;BME280;30041;48.300;16.352;2022-07-23T01:30:47;99669.53;;;27.48;47.16
43312;BME280;30041;48.300;16.352;2022-07-23T01:33:13;99685.63;;;27.45;47.28
43312;BME280;30041;48.300;16.352;2022-07-23T01:35:39;99698.41;;;27.49;47.28
43312;BME280;30041;48.300;16.352;2022-07-23T01:38:05;99702.75;;;27.50;46.76
43312;BME280;30041;48.300;16.352;2022-07-23T01:40:31;99710.66;;;27.47;46.98
43312;BME280;30041;48.300;16.352;2022-07-23T01:42:57;99712.28;;;27.48;47.15
43312;BME280;30041;48.300;16.352;2022-07-23T01:45:23;99723.44;;;27.51;46.86
43312;BME280;30041;48.300;16.352;2022-07-23T01:47:48;99720.72;;;27.51;47.04
43312;BME280;30041;48.300;16.352;2022-07-23T01:50:14;99711.75;;;27.51;46.67
43312;BME280;30041;48.300;16.352;2022-07-23T01:52:40;99706.28;;;27.51;46.86
43312;BME280;30041;48.300;16.352;2022-07-23T01:55:06;99701.13;;;27.49;46.70
43312;BME280;30041;48.300;16.352;2022-07-23T01:57:32;99706.81;;;27.48;46.78
43312;BME280;30041;48.300;16.352;2022-07-23T01:59:58;99704.41;;;27.46;46.71
43312;BME280;30041;48.300;16.352;2022-07-23T02:02:24;99704.94;;;27.43;46.75
43312;BME280;30041;48.300;16.352;2022-07-23T02:04:50;99705.75;;;27.44;46.86
43312;BME280;30041;48.300;16.352;2022-07-23T02:07:16;99697.88;;;27.42;46.68
43312;BME280;30041;48.300;16.352;2022-07-23T02:09:42;99685.66;;;27.40;46.62
43312;BME280;30041;48.300;16.352;2022-07-23T02:12:07;99677.69;;;27.48;46.59
43312;BME280;30041;48.300;16.352;2022-07-23T02:14:33;99668.19;;;27.46;46.80
43312;BME280;30041;48.300;16.352;2022-07-23T02:16:59;99653.53;;;27.42;47.12
43312;BME280;30041;48.300;16.352;2022-07-23T02:19:25;99639.06;;;27.41;46.83
43312;BME280;30041;48.300;16.352;2022-07-23T02:21:51;99632.25;;;27.44;46.95
43312;BME280;30041;48.300;16.352;2022-07-23T02:24:16;99626.53;;;27.45;46.84
43312;BME280;30041;48.300;16.352;2022-07-23T02:26:42;99608.31;;;27.46;46.95
43312;BME280;30041;48.300;16.352;2022-07-23T02:29:08;99587.88;;;27.48;46.65
43312;BME280;30041;48.300;16.352;2022-07-23T02:31:34;99575.09;;;27.49;46.92
43312;BME280;30041;48.300;16.352;2022-07-23T02:34:00;99576.75;;;27.45;46.96
43312;BME280;30041;48.300;16.352;2022-07-23T02:36:27;99562.31;;;27.49;46.70
43312;BME280;30041;48.300;16.352;2022-07-23T02:38:52;99551.16;;;27.46;46.79
43312;BME280;30041;48.300;16.352;2022-07-23T02:41:18;99550.91;;;27.42;47.01
43312;BME280;30041;48.300;16.352;2022-07-23T02:43:44;99551.44;;;27.44;46.69
43312;BME280;30041;48.300;16.352;2022-07-23T02:46:09;99567.78;;;27.44;46.97
43312;BME280;30041;48.300;16.352;2022-07-23T02:48:35;99567.78;;;27.44;46.79
43312;BME280;30041;48.300;16.352;2022-07-23T02:51:01;99559.06;;;27.42;46.72
43312;BME280;30041;48.300;16.352;2022-07-23T02:53:26;99570.50;;;27.44;46.73
43312;BME280;30041;48.300;16.352;2022-07-23T02:55:52;99590.91;;;27.47;46.72
43312;BME280;30041;48.300;16.352;2022-07-23T02:58:18;99621.91;;;27.46;46.97
43312;BME280;30041;48.300;16.352;2022-07-23T03:00:43;99610.75;;;27.47;46.52
43312;BME280;30041;48.300;16.352;2022-07-23T03:03:09;99577.00;;;27.48;46.77
43312;BME280;30041;48.300;16.352;2022-07-23T03:05:36;99586.53;;;27.46;46.85
43312;BME280;30041;48.300;16.352;2022-07-23T03:08:02;99602.84;;;27.46;46.96
43312;BME280;30041;48.300;16.352;2022-07-23T03:10:27;99597.97;;;27.48;46.53
43312;BME280;30041;48.300;16.352;2022-07-23T03:12:53;99590.34;;;27.45;46.65
43312;BME280;30041;48.300;16.352;2022-07-23T03:15:18;99626.00;;;27.43;46.68
43312;BME280;30041;48.300;16.352;2022-07-23T03:17:44;99633.63;;;27.46;46.79
43312;BME280;30041;48.300;16.352;2022-07-23T03:20:10;99623.28;;;27.43;46.71
43312;BME280;30041;48.300;16.352;2022-07-23T03:22:36;99608.88;;;27.43;47.06
43312;BME280;30041;48.300;16.352;2022-07-23T03:25:02;99618.66;;;27.44;47.01
43312;BME280;30041;48.300;16.352;2022-07-23T03:27:31;99635.81;;;27.44;47.12
43312;BME280;30041;48.300;16.352;2022-07-23T03:29:58;99632.53;;;27.47;47.03
43312;BME280;30041;48.300;16.352;2022-07-23T03:32:25;99629.00;;;27.47;47.00
43312;BME280;30041;48.300;16.352;2022-07-23T03:34:50;99609.41;;;27.45;46.75
43312;BME280;30041;48.300;16.352;2022-07-23T03:37:17;99618.91;;;27.47;46.63
43312;BME280;30041;48.300;16.352;2022-07-23T03:39:43;99625.97;;;27.48;46.81
43312;BME280;30041;48.300;16.352;2022-07-23T03:42:09;99625.47;;;27.46;46.76
43312;BME280;30041;48.300;16.352;2022-07-23T03:44:35;99617.31;;;27.46;46.78
43312;BME280;30041;48.300;16.352;2022-07-23T03:47:01;99631.19;;;27.45;46.78
43312;BME280;30041;48.300;16.352;2022-07-23T03:49:26;99637.44;;;27.45;46.72
43312;BME280;30041;48.300;16.352;2022-07-23T03:51:52;99643.69;;;27.46;46.58
43312;BME280;30041;48.300;16.352;2022-07-23T03:54:17;99645.88;;;27.44;46.97
43312;BME280;30041;48.300;16.352;2022-07-23T03:56:43;99646.13;;;27.47;46.84
43312;BME280;30041;48.300;16.352;2022-07-23T03:59:09;99646.69;;;27.49;46.61
43312;BME280;30041;48.300;16.352;2022-07-23T04:01:35;99655.13;;;27.48;46.93
43312;BME280;30041;48.300;16.352;2022-07-23T04:04:02;99657.56;;;27.49;46.79
43312;BME280;30041;48.300;16.352;2022-07-23T04:06:27;99664.38;;;27.47;46.64
43312;BME280;30041;48.300;16.352;2022-07-23T04:08:53;99659.75;;;27.47;46.72
43312;BME280;30041;48.300;16.352;2022-07-23T04:11:18;99670.38;;;27.44;46.47
43312;BME280;30041;48.300;16.352;2022-07-23T04:13:44;99668.19;;;27.46;46.78
43312;BME280;30041;48.300;16.352;2022-07-23T04:16:10;99666.00;;;27.48;46.34
43312;BME280;30041;48.300;16.352;2022-07-23T04:18:36;99661.66;;;27.47;46.75
43312;BME280;30041;48.300;16.352;2022-07-23T04:21:01;99661.66;;;27.47;46.32
43312;BME280;30041;48.300;16.352;2022-07-23T04:23:27;99672.84;;;27.40;46.49
43312;BME280;30041;48.300;16.352;2022-07-23T04:25:53;99672.28;;;27.43;46.63
43312;BME280;30041;48.300;16.352;2022-07-23T04:28:18;99669.28;;;27.45;46.61
43312;BME280;30041;48.300;16.352;2022-07-23T04:30:44;99661.94;;;27.45;46.57
43312;BME280;30041;48.300;16.352;2022-07-23T04:33:09;99675.53;;;27.45;46.40
43312;BME280;30041;48.300;16.352;2022-07-23T04:35:35;99671.47;;;27.43;46.53
43312;BME280;30041;48.300;16.352;2022-07-23T04:38:01;99670.38;;;27.44;46.34
43312;BME280;30041;48.300;16.352;2022-07-23T04:40:27;99676.34;;;27.46;46.27
43312;BME280;30041;48.300;16.352;2022-07-23T04:42:53;99667.94;;;27.42;46.50
43312;BME280;30041;48.300;16.352;2022-07-23T04:45:19;99675.88;;;27.28;47.12
43312;BME280;30041;48.300;16.352;2022-07-23T04:47:45;99672.88;;;27.20;46.99
43312;BME280;30041;48.300;16.352;2022-07-23T04:50:10;99660.34;;;27.19;46.94
43312;BME280;30041;48.300;16.352;2022-07-23T04:52:36;99663.06;;;27.19;46.42
43312;BME280;30041;48.300;16.352;2022-07-23T04:55:02;99654.91;;;27.13;46.78
43312;BME280;30041;48.300;16.352;2022-07-23T04:57:28;99650.28;;;27.09;46.95
43312;BME280;30041;48.300;16.352;2022-07-23T04:59:54;99652.75;;;27.10;46.66
43312;BME280;30041;48.300;16.352;2022-07-23T05:02:19;99660.34;;;27.03;47.10
43312;BME280;30041;48.300;16.352;2022-07-23T05:04:45;99662.53;;;27.06;47.12
43312;BME280;30041;48.300;16.352;2022-07-23T05:07:11;99661.47;;;27.02;47.38
43312;BME280;30041;48.300;16.352;2022-07-23T05:09:37;99666.38;;;26.95;47.39
43312;BME280;30041;48.300;16.352;2022-07-23T05:12:02;99668.50;;;27.03;47.23
43312;BME280;30041;48.300;16.352;2022-07-23T05:14:28;99663.34;;;27.07;46.80
43312;BME280;30041;48.300;16.352;2022-07-23T05:16:54;99661.47;;;27.02;47.21
43312;BME280;30041;48.300;16.352;2022-07-23T05:19:19;99660.91;;;27.21;46.66
43312;BME280;30041;48.300;16.352;2022-07-23T05:21:45;99663.34;;;27.27;46.77
43312;BME280;30041;48.300;16.352;2022-07-23T05:24:11;99664.16;;;27.23;46.87
43312;BME280;30041;48.300;16.352;2022-07-23T05:26:36;99674.50;;;27.21;46.90
43312;BME280;30041;48.300;16.352;2022-07-23T05:29:02;99673.13;;;27.18;46.74
43312;BME280;30041;48.300;16.352;2022-07-23T05:31:28;99675.56;;;27.15;46.71
43312;BME280;30041;48.300;16.352;2022-07-23T05:33:53;99679.13;;;27.10;46.10
43312;BME280;30041;48.300;16.352;2022-07-23T05:36:19;99676.13;;;27.11;46.50
43312;BME280;30041;48.300;16.352;2022-07-23T05:38:44;99678.56;;;27.08;45.98
43312;BME280;30041;48.300;16.352;2022-07-23T05:41:10;99684.84;;;27.08;46.74
43312;BME280;30041;48.300;16.352;2022-07-23T05:43:36;99685.91;;;27.12;46.63
43312;BME280;30041;48.300;16.352;2022-07-23T05:46:02;99686.47;;;27.25;45.81
43312;BME280;30041;48.300;16.352;2022-07-23T05:48:27;99690.84;;;27.21;46.08
43312;BME280;30041;48.300;16.352;2022-07-23T05:50:53;99692.72;;;27.15;45.84
43312;BME280;30041;48.300;16.352;2022-07-23T05:53:19;99693.81;;;27.14;46.21
43312;BME280;30041;48.300;16.352;2022-07-23T05:55:44;99699.22;;;27.19;46.29
43312;BME280;30041;48.300;16.352;2022-07-23T05:58:10;99702.78;;;27.20;45.81
43312;BME280;30041;48.300;16.352;2022-07-23T06:00:36;99706.31;;;27.20;46.04
43312;BME280;30041;48.300;16.352;2022-07-23T06:03:01;99718.59;;;27.23;46.21
43312;BME280;30041;48.300;16.352;2022-07-23T06:05:27;99720.75;;;27.21;46.19
43312;BME280;30041;48.300;16.352;2022-07-23T06:07:53;99722.94;;;27.24;46.17
43312;BME280;30041;48.300;16.352;2022-07-23T06:10:19;99716.13;;;27.21;46.14
43312;BME280;30041;48.300;16.352;2022-07-23T06:12:45;99711.53;;;27.22;46.71
43312;BME280;30041;48.300;16.352;2022-07-23T06:15:11;99706.31;;;27.20;46.72
43312;BME280;30041;48.300;16.352;2022-07-23T06:17:38;99700.06;;;27.30;47.18
43312;BME280;30041;48.300;16.352;2022-07-23T06:20:07;99703.38;;;27.22;47.42
43312;BME280;30041;48.300;16.352;2022-07-23T06:22:33;99708.25;;;27.25;47.37
43312;BME280;30041;48.300;16.352;2022-07-23T06:24:59;99701.16;;;27.34;48.25
43312;BME280;30041;48.300;16.352;2022-07-23T06:27:24;99702.78;;;27.30;48.35
43312;BME280;30041;48.300;16.352;2022-07-23T06:29:50;99695.44;;;27.30;48.39
43312;BME280;30041;48.300;16.352;2022-07-23T06:32:16;99691.63;;;27.31;48.33
43312;BME280;30041;48.300;16.352;2022-07-23T06:34:41;99696.53;;;27.29;48.33
43312;BME280;30041;48.300;16.352;2022-07-23T06:37:07;99700.63;;;27.27;48.72
43312;BME280;30041;48.300;16.352;2022-07-23T06:39:33;99701.16;;;27.24;49.00
43312;BME280;30041;48.300;16.352;2022-07-23T06:41:59;99687.84;;;27.27;48.77
43312;BME280;30041;48.300;16.352;2022-07-23T06:44:25;99690.00;;;27.25;48.97
43312;BME280;30041;48.300;16.352;2022-07-23T06:46:50;99685.38;;;27.31;49.59
43312;BME280;30041;48.300;16.352;2022-07-23T06:49:16;99683.75;;;27.30;49.27
43312;BME280;30041;48.300;16.352;2022-07-23T06:51:42;99690.00;;;27.25;49.07
43312;BME280;30041;48.300;16.352;2022-07-23T06:54:08;99679.41;;;27.29;49.23
43312;BME280;30041;48.300;16.352;2022-07-23T06:56:33;99684.84;;;27.24;49.40
43312;BME280;30041;48.300;16.352;2022-07-23T06:58:59;99683.50;;;27.26;49.63
43312;BME280;30041;48.300;16.352;2022-07-23T07:01:25;99696.50;;;27.35;49.27
43312;BME280;30041;48.300;16.352;2022-07-23T07:03:51;99687.81;;;27.43;48.70
43312;BME280;30041;48.300;16.352;2022-07-23T07:06:16;99680.47;;;27.38;48.88
43312;BME280;30041;48.300;16.352;2022-07-23T07:08:42;99686.44;;;27.45;48.62
43312;BME280;30041;48.300;16.352;2022-07-23T07:11:08;99682.34;;;27.48;48.08
43312;BME280;30041;48.300;16.352;2022-07-23T07:13:34;99676.59;;;27.54;47.27
43312;BME280;30041;48.300;16.352;2022-07-23T07:16:02;99673.06;;;27.54;47.11
43312;BME280;30041;48.300;16.352;2022-07-23T07:18:28;99665.75;;;27.44;47.85
43312;BME280;30041;48.300;16.352;2022-07-23T07:20:57;99679.38;;;27.44;47.21
43312;BME280;30041;48.300;16.352;2022-07-23T07:23:23;99669.56;;;27.38;47.34
43312;BME280;30041;48.300;16.352;2022-07-23T07:25:49;99682.09;;;27.39;47.08
43312;BME280;30041;48.300;16.352;2022-07-23T07:28:15;99680.41;;;27.48;46.20
43312;BME280;30041;48.300;16.352;2022-07-23T07:30:40;99676.06;;;27.52;46.32
43312;BME280;30041;48.300;16.352;2022-07-23T07:33:06;99683.69;;;27.50;46.23
43312;BME280;30041;48.300;16.352;2022-07-23T07:35:32;99671.41;;;27.58;45.64
43312;BME280;30041;48.300;16.352;2022-07-23T07:37:59;99673.34;;;27.52;45.77
43312;BME280;30041;48.300;16.352;2022-07-23T07:40:25;99678.50;;;27.64;45.32
43312;BME280;30041;48.300;16.352;2022-07-23T07:42:52;99682.00;;;27.70;44.91
43312;BME280;30041;48.300;16.352;2022-07-23T07:45:21;99689.31;;;27.74;44.62
43312;BME280;30041;48.300;16.352;2022-07-23T07:47:47;99684.94;;;27.89;43.35
43312;BME280;30041;48.300;16.352;2022-07-23T07:50:13;99681.13;;;27.90;43.83
43312;BME280;30041;48.300;16.352;2022-07-23T07:52:39;99686.84;;;27.83;44.26
43312;BME280;30041;48.300;16.352;2022-07-23T07:55:07;99696.91;;;27.83;44.51
43312;BME280;30041;48.300;16.352;2022-07-23T07:57:33;99702.09;;;27.79;44.05
43312;BME280;30041;48.300;16.352;2022-07-23T07:59:59;99697.19;;;27.86;42.95
43312;BME280;30041;48.300;16.352;2022-07-23T08:02:25;99697.22;;;27.76;44.00
43312;BME280;30041;48.300;16.352;2022-07-23T08:04:51;99705.91;;;27.83;43.56
43312;BME280;30041;48.300;16.352;2022-07-23T08:07:17;99696.41;;;27.76;44.19
43312;BME280;30041;48.300;16.352;2022-07-23T08:09:43;99704.81;;;27.89;43.40
43312;BME280;30041;48.300;16.352;2022-07-23T08:12:08;99705.97;;;27.73;44.10
43312;BME280;30041;48.300;16.352;2022-07-23T08:14:34;99702.41;;;27.72;43.96
43312;BME280;30041;48.300;16.352;2022-07-23T08:17:00;99707.06;;;27.67;44.15
43312;BME280;30041;48.300;16.352;2022-07-23T08:19:25;99710.31;;;27.64;44.03
43312;BME280;30041;48.300;16.352;2022-07-23T08:21:51;99711.94;;;27.70;43.83
43312;BME280;30041;48.300;16.352;2022-07-23T08:24:17;99714.41;;;27.71;43.32
43312;BME280;30041;48.300;16.352;2022-07-23T08:26:42;99720.69;;;27.67;43.37
43312;BME280;30041;48.300;16.352;2022-07-23T08:29:08;99718.50;;;27.64;43.53
43312;BME280;30041;48.300;16.352;2022-07-23T08:31:34;99719.28;;;27.74;43.53
43312;BME280;30041;48.300;16.352;2022-07-23T08:34:00;99708.63;;;27.83;43.43
43312;BME280;30041;48.300;16.352;2022-07-23T08:36:26;99722.84;;;27.70;43.58
43312;BME280;30041;48.300;16.352;2022-07-23T08:38:51;99715.19;;;27.72;43.83
43312;BME280;30041;48.300;16.352;2022-07-23T08:41:17;99709.78;;;27.67;43.75
43312;BME280;30041;48.300;16.352;2022-07-23T08:43:44;99701.91;;;27.60;43.66
43312;BME280;30041;48.300;16.352;2022-07-23T08:46:10;99710.91;;;27.56;43.97
43312;BME280;30041;48.300;16.352;2022-07-23T08:48:37;99702.16;;;27.69;43.80
43312;BME280;30041;48.300;16.352;2022-07-23T08:51:04;99698.09;;;27.66;43.92
43312;BME280;30041;48.300;16.352;2022-07-23T08:53:32;99699.69;;;27.67;44.20
43312;BME280;30041;48.300;16.352;2022-07-23T08:56:00;99703.00;;;27.59;44.32
43312;BME280;30041;48.300;16.352;2022-07-23T08:58:26;99706.53;;;27.60;44.00
43312;BME280;30041;48.300;16.352;2022-07-23T09:00:52;99709.00;;;27.56;44.27
43312;BME280;30041;48.300;16.352;2022-07-23T09:03:20;99697.25;;;27.66;44.09
43312;BME280;30041;48.300;16.352;2022-07-23T09:05:49;99709.78;;;27.67;43.78
43312;BME280;30041;48.300;16.352;2022-07-23T09:08:20;99704.06;;;27.63;44.05
43312;BME280;30041;48.300;16.352;2022-07-23T09:10:54;99702.94;;;27.74;43.78
43312;BME280;30041;48.300;16.352;2022-07-23T09:15:58;99697.78;;;27.73;43.68
43312;BME280;30041;48.300;16.352;2022-07-23T09:18:43;99705.16;;;27.57;44.17
43312;BME280;30041;48.300;16.352;2022-07-23T09:21:19;99710.31;;;27.64;43.81
43312;BME280;30041;48.300;16.352;2022-07-23T09:24:00;99696.16;;;27.67;43.43
43312;BME280;30041;48.300;16.352;2022-07-23T09:26:42;99701.31;;;27.68;43.94
43312;BME280;30041;48.300;16.352;2022-07-23T09:29:15;99691.78;;;27.76;43.47
43312;BME280;30041;48.300;16.352;2022-07-23T09:31:47;99685.78;;;27.74;43.59
43312;BME280;30041;48.300;16.352;2022-07-23T09:34:22;99679.28;;;27.65;43.92
43312;BME280;30041;48.300;16.352;2022-07-23T09:36:49;99683.69;;;27.56;44.15
43312;BME280;30041;48.300;16.352;2022-07-23T09:39:21;99676.03;;;27.63;43.96
43312;BME280;30041;48.300;16.352;2022-07-23T09:41:49;99678.16;;;27.76;43.78
43312;BME280;30041;48.300;16.352;2022-07-23T09:44:19;99676.56;;;27.65;44.21
43312;BME280;30041;48.300;16.352;2022-07-23T09:46:47;99671.66;;;27.67;44.41
43312;BME280;30041;48.300;16.352;2022-07-23T09:49:18;99678.72;;;27.68;44.40
43312;BME280;30041;48.300;16.352;2022-07-23T09:51:54;99665.63;;;27.80;43.76
43312;BME280;30041;48.300;16.352;2022-07-23T09:56:48;99675.38;;;27.97;44.01
43312;BME280;30041;48.300;16.352;2022-07-23T09:59:16;99671.50;;;28.08;43.32
43312;BME280;30041;48.300;16.352;2022-07-23T10:01:42;99674.44;;;28.17;43.15
43312;BME280;30041;48.300;16.352;2022-07-23T10:04:08;99680.47;;;28.13;43.54
43312;BME280;30041;48.300;16.352;2022-07-23T10:06:34;99667.44;;;28.05;44.12
43312;BME280;30041;48.300;16.352;2022-07-23T10:09:01;99670.47;;;27.99;44.58
43312;BME280;30041;48.300;16.352;2022-07-23T10:11:28;99675.94;;;27.93;44.90
43312;BME280;30041;48.300;16.352;2022-07-23T10:14:12;99670.25;;;27.74;45.36
43312;BME280;30041;48.300;16.352;2022-07-23T10:19:49;99667.84;;;27.68;45.26
43312;BME280;30041;48.300;16.352;2022-07-23T10:22:38;99665.66;;;27.70;44.99
43312;BME280;30041;48.300;16.352;2022-07-23T10:25:26;99667.31;;;27.71;45.40
43312;BME280;30041;48.300;16.352;2022-07-23T10:28:17;99670.84;;;27.71;45.52
43312;BME280;30041;48.300;16.352;2022-07-23T10:31:14;99665.41;;;27.66;45.55
43312;BME280;30041;48.300;16.352;2022-07-23T10:34:14;99671.66;;;27.67;45.26
43312;BME280;30041;48.300;16.352;2022-07-23T10:36:47;99665.13;;;27.73;45.54
43312;BME280;30041;48.300;16.352;2022-07-23T10:39:22;99676.28;;;27.71;45.78
43312;BME280;30041;48.300;16.352;2022-07-23T10:41:50;99662.63;;;27.77;45.59
43312;BME280;30041;48.300;16.352;2022-07-23T10:44:18;99658.28;;;27.76;45.31
43312;BME280;30041;48.300;16.352;2022-07-23T10:47:03;99655.84;;;27.74;45.72
43312;BME280;30041;48.300;16.352;2022-07-23T10:49:31;99654.19;;;27.78;45.57
43312;BME280;30041;48.300;16.352;2022-07-23T10:54:48;99647.41;;;27.76;45.27
43312;BME280;30041;48.300;16.352;2022-07-23T10:57:18;99648.22;;;27.76;45.29
43312;BME280;30041;48.300;16.352;2022-07-23T11:02:29;99639.22;;;27.70;45.55
43312;BME280;30041;48.300;16.352;2022-07-23T11:05:06;99630.78;;;27.72;45.76
43312;BME280;30041;48.300;16.352;2022-07-23T11:07:34;99639.78;;;27.72;45.29
43312;BME280;30041;48.300;16.352;2022-07-23T11:10:00;99636.81;;;27.69;45.61
43312;BME280;30041;48.300;16.352;2022-07-23T11:15:14;99633.81;;;27.65;45.82
43312;BME280;30041;48.300;16.352;2022-07-23T11:22:47;99631.13;;;27.60;45.76
43312;BME280;30041;48.300;16.352;2022-07-23T11:25:31;99635.47;;;27.61;45.77
43312;BME280;30041;48.300;16.352;2022-07-23T11:28:17;99643.38;;;27.63;46.06
43312;BME280;30041;48.300;16.352;2022-07-23T11:30:44;99625.66;;;27.65;45.93
43312;BME280;30041;48.300;16.352;2022-07-23T11:35:38;99634.94;;;27.64;45.97
43312;BME280;30041;48.300;16.352;2022-07-23T11:38:22;99622.13;;;27.65;46.24
43312;BME280;30041;48.300;16.352;2022-07-23T11:40:54;99612.31;;;27.64;46.28
43312;BME280;30041;48.300;16.352;2022-07-23T11:43:21;99615.34;;;27.62;45.84
43312;BME280;30041;48.300;16.352;2022-07-23T11:45:49;99610.13;;;27.66;46.10
43312;BME280;30041;48.300;16.352;2022-07-23T11:48:21;99613.38;;;27.73;45.99
43312;BME280;30041;48.300;16.352;2022-07-23T11:50:48;99609.53;;;27.84;46.21
43312;BME280;30041;48.300;16.352;2022-07-23T11:53:22;99605.44;;;27.77;46.36
43312;BME280;30041;48.300;16.352;2022-07-23T11:55:48;99596.19;;;27.72;46.46
43312;BME280;30041;48.300;16.352;2022-07-23T11:58:14;99590.22;;;27.76;46.43
43312;BME280;30041;48.300;16.352;2022-07-23T12:00:41;99597.53;;;27.80;46.20
43312;BME280;30041;48.300;16.352;2022-07-23T12:03:07;99592.38;;;27.79;46.55
43312;BME280;30041;48.300;16.352;2022-07-23T12:05:35;99594.50;;;27.82;46.35
43312;BME280;30041;48.300;16.352;2022-07-23T12:08:04;99599.16;;;27.81;46.46
43312;BME280;30041;48.300;16.352;2022-07-23T12:10:41;99607.09;;;27.78;46.17
43312;BME280;30041;48.300;16.352;2022-07-23T12:13:12;99606.00;;;27.73;46.24
43312;BME280;30041;48.300;16.352;2022-07-23T12:15:46;99598.66;;;27.74;46.38
43312;BME280;30041;48.300;16.352;2022-07-23T12:18:14;99601.13;;;27.70;46.69
43312;BME280;30041;48.300;16.352;2022-07-23T12:20:45;99615.53;;;27.76;46.88
43312;BME280;30041;48.300;16.352;2022-07-23T12:23:14;99608.47;;;27.70;46.79
43312;BME280;30041;48.300;16.352;2022-07-23T12:25:42;99609.28;;;27.70;46.90
43312;BME280;30041;48.300;16.352;2022-07-23T12:28:12;99602.50;;;27.68;46.66
43312;BME280;30041;48.300;16.352;2022-07-23T12:33:10;99601.94;;;27.71;46.64
43312;BME280;30041;48.300;16.352;2022-07-23T12:35:39;99601.94;;;27.71;46.82
43312;BME280;30041;48.300;16.352;2022-07-23T12:38:09;99594.06;;;27.69;46.79
43312;BME280;30041;48.300;16.352;2022-07-23T12:40:47;99597.03;;;27.68;46.74
43312;BME280;30041;48.300;16.352;2022-07-23T12:43:30;99604.66;;;27.71;47.02
43312;BME280;30041;48.300;16.352;2022-07-23T12:46:11;99599.50;;;27.69;47.03
43312;BME280;30041;48.300;16.352;2022-07-23T12:48:55;99593.78;;;27.71;46.86
43312;BME280;30041;48.300;16.352;2022-07-23T12:51:31;99596.50;;;27.71;47.04
43312;BME280;30041;48.300;16.352;2022-07-23T12:54:05;99607.41;;;27.71;46.59
43312;BME280;30041;48.300;16.352;2022-07-23T12:56:33;99602.75;;;27.71;46.81
43312;BME280;30041;48.300;16.352;2022-07-23T12:59:08;99606.84;;;27.69;46.84
43312;BME280;30041;48.300;16.352;2022-07-23T13:01:36;99595.97;;;27.69;47.00
43312;BME280;30041;48.300;16.352;2022-07-23T13:06:37;99604.41;;;27.67;46.87
43312;BME280;30041;48.300;16.352;2022-07-23T13:09:07;99606.84;;;27.69;46.67
43312;BME280;30041;48.300;16.352;2022-07-23T13:11:34;99619.13;;;27.66;46.92
43312;BME280;30041;48.300;16.352;2022-07-23T13:14:06;99628.66;;;27.64;46.80
43312;BME280;30041;48.300;16.352;2022-07-23T13:16:32;99627.28;;;27.66;47.01
43312;BME280;30041;48.300;16.352;2022-07-23T13:19:00;99621.00;;;27.66;46.60
43312;BME280;30041;48.300;16.352;2022-07-23T13:21:27;99639.00;;;27.67;46.72